Time;durP1;ratioP1;P1;durP2;ratioP2;P2;SDS_P1;SDS_P2;PMS_P1;PMS_P2;Temp;Humidity;BMP_temperature;BMP_pressure;BME280_temperature;BME280_humidity;BME280_pressure;Samples;Min_cycle;Max_cycle;Signal;HPM_P1;HPM_P2
2023/03/06 00:01:47;;;;;;;4.03;1.25;;;;;;;;;;4847092;29;20080;-68
2023/03/06 00:04:16;;;;;;;2.25;1.38;;;;;;;;;;4858561;29;20048;-68
2023/03/06 00:06:42;;;;;;;3.63;1.40;;;;;;;;;;4862104;29;20047;-68
2023/03/06 00:09:09;;;;;;;4.47;1.30;;;;;;;;;;4845025;29;20053;-68
2023/03/06 00:11:35;;;;;;;3.95;1.40;;;;;;;;;;4862875;29;20053;-67
2023/03/06 00:14:01;;;;;;;3.53;1.25;;;;;;;;;;4859314;29;20043;-67
2023/03/06 00:16:28;;;;;;;3.83;1.17;;;;;;;;;;4845853;29;20064;-67
2023/03/06 00:18:54;;;;;;;6.68;1.40;;;;;;;;;;4863711;29;20118;-67
2023/03/06 00:21:20;;;;;;;3.22;1.20;;;;;;;;;;4849929;29;20056;-67
2023/03/06 00:23:46;;;;;;;8.02;2.17;;;;;;;;;;4849006;29;21227;-67
2023/03/06 00:26:12;;;;;;;4.43;1.30;;;;;;;;;;4868422;29;20179;-68
2023/03/06 00:28:38;;;;;;;8.00;1.40;;;;;;;;;;4847715;29;20044;-68
2023/03/06 00:31:04;;;;;;;2.25;1.08;;;;;;;;;;4845635;29;20135;-68
2023/03/06 00:33:30;;;;;;;2.58;1.10;;;;;;;;;;4845962;29;20113;-68
2023/03/06 00:35:56;;;;;;;3.63;1.48;;;;;;;;;;4845361;29;20462;-69
2023/03/06 00:38:24;;;;;;;1.58;1.45;;;;;;;;;;4858866;29;20048;-68
2023/03/06 00:40:50;;;;;;;4.93;1.10;;;;;;;;;;4845294;29;20117;-68
2023/03/06 00:43:16;;;;;;;2.53;1.00;;;;;;;;;;4844196;29;20090;-69
2023/03/06 00:45:42;;;;;;;8.38;1.30;;;;;;;;;;4831659;29;20056;-69
2023/03/06 00:48:08;;;;;;;1.77;0.70;;;;;;;;;;4866016;29;20044;-69
2023/03/06 00:50:35;;;;;;;3.22;0.70;;;;;;;;;;4850492;29;20049;-69
2023/03/06 00:53:01;;;;;;;2.42;0.90;;;;;;;;;;4847396;29;20046;-69
2023/03/06 00:55:28;;;;;;;1.67;0.57;;;;;;;;;;4852856;29;20091;-69
2023/03/06 00:57:54;;;;;;;0.80;0.60;;;;;;;;;;4849474;29;20410;-69
2023/03/06 01:00:20;;;;;;;3.00;0.60;;;;;;;;;;4848844;29;20206;-70
2023/03/06 01:02:46;;;;;;;1.02;0.50;;;;;;;;;;4847985;29;20135;-69
2023/03/06 01:05:13;;;;;;;3.17;0.80;;;;;;;;;;4844967;29;20132;-69
2023/03/06 01:07:39;;;;;;;6.43;0.82;;;;;;;;;;4850798;29;20695;-70
2023/03/06 01:10:06;;;;;;;1.33;0.50;;;;;;;;;;4853016;29;20051;-70
2023/03/06 01:12:33;;;;;;;3.13;0.80;;;;;;;;;;4854481;29;20041;-70
2023/03/06 01:14:59;;;;;;;0.77;0.50;;;;;;;;;;4865748;29;20044;-69
2023/03/06 01:17:25;;;;;;;1.70;0.80;;;;;;;;;;4848901;29;20048;-70
2023/03/06 01:19:51;;;;;;;3.67;1.30;;;;;;;;;;4849012;29;20107;-70
2023/03/06 01:22:17;;;;;;;2.88;1.80;;;;;;;;;;4845682;29;20045;-70
2023/03/06 01:24:43;;;;;;;3.88;1.92;;;;;;;;;;4848705;29;20053;-70
2023/03/06 01:27:09;;;;;;;3.72;2.00;;;;;;;;;;4865365;29;20127;-70
2023/03/06 01:29:35;;;;;;;3.13;1.70;;;;;;;;;;4862638;29;20402;-70
2023/03/06 01:32:01;;;;;;;5.00;2.00;;;;;;;;;;4832335;29;20441;-70
2023/03/06 01:34:27;;;;;;;3.75;1.65;;;;;;;;;;4851111;29;20059;-70
2023/03/06 01:36:53;;;;;;;6.25;1.30;;;;;;;;;;4865247;29;21002;-70
2023/03/06 01:39:20;;;;;;;2.75;1.15;;;;;;;;;;4850497;29;20040;-69
2023/03/06 01:41:46;;;;;;;3.28;1.10;;;;;;;;;;4865462;29;20092;-70
2023/03/06 01:44:15;;;;;;;1.00;0.82;;;;;;;;;;4850694;29;20059;-70
2023/03/06 01:46:42;;;;;;;6.50;1.30;;;;;;;;;;4838445;29;20045;-70
2023/03/06 01:49:11;;;;;;;2.90;1.02;;;;;;;;;;4847680;29;20044;-70
2023/03/06 01:51:47;;;;;;;2.28;1.00;;;;;;;;;;4865466;29;20037;-70
2023/03/06 01:54:15;;;;;;;2.97;0.80;;;;;;;;;;4849603;29;20061;-70
2023/03/06 01:56:43;;;;;;;0.85;0.68;;;;;;;;;;4865287;29;20041;-70
2023/03/06 01:59:10;;;;;;;1.63;0.80;;;;;;;;;;4849600;29;20053;-69
2023/03/06 02:01:38;;;;;;;2.60;1.00;;;;;;;;;;4850634;29;20044;-70
2023/03/06 02:04:04;;;;;;;3.95;1.15;;;;;;;;;;4844254;29;21037;-70
2023/03/06 02:06:30;;;;;;;3.30;1.42;;;;;;;;;;4847448;29;20052;-70
2023/03/06 02:08:56;;;;;;;3.92;1.00;;;;;;;;;;4840300;29;20816;-70
2023/03/06 02:11:24;;;;;;;1.02;0.80;;;;;;;;;;4857501;29;20567;-70
2023/03/06 02:13:51;;;;;;;3.17;0.80;;;;;;;;;;4848192;29;20048;-69
2023/03/06 02:16:19;;;;;;;0.65;0.60;;;;;;;;;;4846955;29;20053;-70
2023/03/06 02:18:46;;;;;;;1.13;0.75;;;;;;;;;;4866631;29;20071;-70
2023/03/06 02:21:19;;;;;;;3.53;1.00;;;;;;;;;;4848699;29;20056;-69
2023/03/06 02:23:51;;;;;;;1.95;0.80;;;;;;;;;;4847566;29;20136;-70
2023/03/06 02:26:18;;;;;;;2.97;0.90;;;;;;;;;;4828544;29;20048;-70
2023/03/06 02:28:44;;;;;;;4.10;1.25;;;;;;;;;;4846257;29;20048;-70
2023/03/06 02:31:19;;;;;;;2.70;1.20;;;;;;;;;;4847434;29;20450;-70
2023/03/06 02:33:45;;;;;;;3.03;2.53;;;;;;;;;;4849177;29;20186;-70
2023/03/06 02:36:14;;;;;;;6.35;1.08;;;;;;;;;;4846246;29;20524;-70
2023/03/06 02:38:48;;;;;;;2.83;1.10;;;;;;;;;;4847449;29;20108;-70
2023/03/06 02:41:15;;;;;;;3.30;1.30;;;;;;;;;;4847025;29;20497;-70
2023/03/06 02:43:43;;;;;;;2.63;1.27;;;;;;;;;;4847533;29;20512;-70
2023/03/06 02:46:09;;;;;;;2.30;1.42;;;;;;;;;;4865288;29;20049;-70
2023/03/06 02:48:35;;;;;;;3.72;1.63;;;;;;;;;;4853119;29;20049;-70
2023/03/06 02:51:01;;;;;;;3.70;1.73;;;;;;;;;;4829318;29;20509;-70
2023/03/06 02:53:27;;;;;;;2.90;1.67;;;;;;;;;;4866742;29;20057;-70
2023/03/06 02:55:53;;;;;;;4.45;1.83;;;;;;;;;;4858642;29;20057;-70
2023/03/06 02:58:20;;;;;;;4.28;1.30;;;;;;;;;;4854237;29;20481;-70
2023/03/06 03:00:47;;;;;;;3.30;1.63;;;;;;;;;;4848912;29;20156;-70
2023/03/06 03:03:13;;;;;;;3.50;1.67;;;;;;;;;;4849734;29;20501;-70
2023/03/06 03:05:39;;;;;;;3.58;1.80;;;;;;;;;;4867135;29;20056;-70
2023/03/06 03:08:05;;;;;;;4.47;1.92;;;;;;;;;;4847525;29;20497;-70
2023/03/06 03:10:31;;;;;;;5.57;1.90;;;;;;;;;;4863349;29;20592;-70
2023/03/06 03:12:58;;;;;;;6.53;2.20;;;;;;;;;;4849152;29;20052;-70
2023/03/06 03:15:24;;;;;;;4.18;1.50;;;;;;;;;;4847055;29;20083;-70
2023/03/06 03:17:50;;;;;;;5.20;1.88;;;;;;;;;;4862041;29;20076;-70
2023/03/06 03:20:18;;;;;;;5.82;2.10;;;;;;;;;;4833484;29;20797;-71
2023/03/06 03:22:48;;;;;;;5.15;2.10;;;;;;;;;;4845852;29;20053;-70
2023/03/06 03:25:14;;;;;;;9.70;2.55;;;;;;;;;;4847203;29;20103;-70
2023/03/06 03:27:40;;;;;;;6.38;2.75;;;;;;;;;;4846351;29;20048;-70
2023/03/06 03:30:07;;;;;;;6.65;2.85;;;;;;;;;;4846951;29;20525;-70
2023/03/06 03:32:33;;;;;;;7.57;2.88;;;;;;;;;;4847393;29;20076;-70
2023/03/06 03:34:59;;;;;;;9.13;3.45;;;;;;;;;;4865037;29;20045;-70
2023/03/06 03:37:25;;;;;;;9.13;3.05;;;;;;;;;;4850917;29;20045;-70
2023/03/06 03:39:51;;;;;;;8.57;3.20;;;;;;;;;;4848094;29;20053;-70
2023/03/06 03:42:17;;;;;;;7.15;3.15;;;;;;;;;;4850889;29;20101;-70
2023/03/06 03:44:43;;;;;;;8.07;3.08;;;;;;;;;;4846885;29;20053;-70
2023/03/06 03:47:10;;;;;;;9.13;3.35;;;;;;;;;;4846559;29;20437;-70
2023/03/06 03:49:36;;;;;;;8.68;3.00;;;;;;;;;;4846379;29;20044;-70
2023/03/06 03:52:02;;;;;;;7.20;2.85;;;;;;;;;;4846706;29;20433;-70
2023/03/06 03:54:28;;;;;;;7.20;3.00;;;;;;;;;;4851671;29;20061;-69
2023/03/06 03:56:54;;;;;;;6.68;2.90;;;;;;;;;;4854195;29;20100;-70
2023/03/06 03:59:20;;;;;;;7.82;2.90;;;;;;;;;;4851159;29;20045;-69
2023/03/06 04:01:47;;;;;;;8.10;3.00;;;;;;;;;;4844045;29;20091;-70
2023/03/06 04:04:13;;;;;;;6.82;3.10;;;;;;;;;;4846253;29;20056;-70
2023/03/06 04:06:39;;;;;;;7.78;2.95;;;;;;;;;;4845429;29;20076;-70
2023/03/06 04:09:05;;;;;;;11.55;3.35;;;;;;;;;;4860088;29;20394;-69
2023/03/06 04:11:31;;;;;;;5.55;3.40;;;;;;;;;;4848199;29;20068;-70
2023/03/06 04:13:57;;;;;;;10.05;3.50;;;;;;;;;;4860714;29;20048;-70
2023/03/06 04:16:23;;;;;;;5.68;3.00;;;;;;;;;;4860410;29;20052;-70
2023/03/06 04:18:49;;;;;;;7.40;3.20;;;;;;;;;;4843895;29;20794;-70
2023/03/06 04:21:15;;;;;;;8.68;3.28;;;;;;;;;;4845100;29;20800;-70
2023/03/06 04:23:41;;;;;;;5.72;3.08;;;;;;;;;;4844287;29;20056;-70
2023/03/06 04:26:08;;;;;;;8.48;3.38;;;;;;;;;;4845091;29;20573;-70
2023/03/06 04:28:34;;;;;;;9.05;3.45;;;;;;;;;;4845283;29;20044;-70
2023/03/06 04:31:00;;;;;;;5.93;3.63;;;;;;;;;;4844131;29;20048;-70
2023/03/06 04:33:26;;;;;;;5.30;3.10;;;;;;;;;;4832992;29;20047;-70
2023/03/06 04:35:52;;;;;;;6.20;3.58;;;;;;;;;;4862325;29;20818;-70
2023/03/06 04:38:18;;;;;;;6.68;3.70;;;;;;;;;;4847675;29;20053;-70
2023/03/06 04:40:44;;;;;;;7.30;4.00;;;;;;;;;;4846748;29;20044;-70
2023/03/06 04:43:10;;;;;;;5.80;3.28;;;;;;;;;;4828431;29;20049;-70
2023/03/06 04:45:36;;;;;;;11.00;3.45;;;;;;;;;;4844588;29;20663;-70
2023/03/06 04:48:03;;;;;;;7.63;3.55;;;;;;;;;;4844503;29;20088;-70
2023/03/06 04:50:32;;;;;;;7.57;3.20;;;;;;;;;;4843354;29;20055;-70
2023/03/06 04:53:00;;;;;;;8.88;3.92;;;;;;;;;;4859518;29;20045;-70
2023/03/06 04:55:26;;;;;;;7.68;3.47;;;;;;;;;;4843341;29;20108;-70
2023/03/06 04:57:52;;;;;;;7.78;4.63;;;;;;;;;;4843407;29;20127;-70
2023/03/06 05:00:20;;;;;;;11.98;3.83;;;;;;;;;;4841692;29;20056;-70
2023/03/06 05:02:46;;;;;;;13.50;4.20;;;;;;;;;;4856658;29;20417;-70
2023/03/06 05:05:13;;;;;;;7.47;3.80;;;;;;;;;;4842471;29;20048;-69
2023/03/06 05:07:39;;;;;;;10.10;4.13;;;;;;;;;;4844662;29;20057;-70
2023/03/06 05:10:06;;;;;;;8.52;3.67;;;;;;;;;;4844585;29;20047;-70
2023/03/06 05:12:34;;;;;;;7.18;3.58;;;;;;;;;;4848290;29;20063;-70
2023/03/06 05:15:00;;;;;;;7.18;3.47;;;;;;;;;;4860202;29;22270;-70
2023/03/06 05:17:26;;;;;;;18.42;3.83;;;;;;;;;;4841918;29;20415;-68
2023/03/06 05:19:53;;;;;;;6.65;3.25;;;;;;;;;;4842229;29;20474;-69
2023/03/06 05:22:19;;;;;;;6.57;3.40;;;;;;;;;;4860509;29;20083;-69
2023/03/06 05:24:45;;;;;;;6.95;3.15;;;;;;;;;;4856058;29;22439;-69
2023/03/06 05:27:11;;;;;;;6.18;3.08;;;;;;;;;;4847969;29;20723;-69
2023/03/06 05:29:37;;;;;;;8.23;2.97;;;;;;;;;;4839961;29;20148;-69
2023/03/06 05:32:03;;;;;;;8.07;3.28;;;;;;;;;;4856881;29;20048;-69
2023/03/06 05:34:29;;;;;;;4.97;3.13;;;;;;;;;;4848694;29;20402;-69
2023/03/06 05:36:55;;;;;;;5.93;3.38;;;;;;;;;;4854529;29;20044;-69
2023/03/06 05:39:21;;;;;;;4.82;3.38;;;;;;;;;;4844393;29;20148;-69
2023/03/06 05:41:47;;;;;;;5.93;3.25;;;;;;;;;;4853287;29;20057;-69
2023/03/06 05:44:13;;;;;;;5.47;3.10;;;;;;;;;;4850890;29;20049;-69
2023/03/06 05:46:39;;;;;;;5.82;3.00;;;;;;;;;;4835029;29;20049;-69
2023/03/06 05:49:06;;;;;;;5.95;3.55;;;;;;;;;;4849042;29;20490;-69
2023/03/06 05:51:32;;;;;;;9.18;3.75;;;;;;;;;;4865325;29;20643;-69
2023/03/06 05:53:58;;;;;;;7.00;3.58;;;;;;;;;;4864333;29;20061;-70
2023/03/06 05:56:24;;;;;;;5.65;3.30;;;;;;;;;;4863416;29;20425;-69
2023/03/06 05:58:50;;;;;;;10.45;3.28;;;;;;;;;;4853433;29;20056;-69
2023/03/06 06:01:17;;;;;;;6.07;2.90;;;;;;;;;;4848485;29;20056;-69
2023/03/06 06:03:44;;;;;;;5.75;3.13;;;;;;;;;;4864886;29;20044;-69
2023/03/06 06:06:11;;;;;;;7.68;3.45;;;;;;;;;;4850587;29;20055;-69
2023/03/06 06:08:38;;;;;;;4.25;2.90;;;;;;;;;;4849305;29;20098;-69
2023/03/06 06:11:04;;;;;;;10.65;3.40;;;;;;;;;;4866624;29;20083;-69
2023/03/06 06:13:30;;;;;;;6.55;3.28;;;;;;;;;;4851741;29;20051;-69
2023/03/06 06:15:56;;;;;;;7.25;3.38;;;;;;;;;;4850101;29;20049;-69
2023/03/06 06:18:22;;;;;;;4.38;3.10;;;;;;;;;;4849298;29;20079;-69
2023/03/06 06:20:48;;;;;;;6.47;3.28;;;;;;;;;;4848537;29;20298;-69
2023/03/06 06:23:14;;;;;;;6.03;2.53;;;;;;;;;;4849881;29;20686;-69
2023/03/06 06:25:40;;;;;;;6.07;2.88;;;;;;;;;;4849353;29;20132;-69
2023/03/06 06:28:07;;;;;;;5.57;3.50;;;;;;;;;;4865351;29;20041;-69
2023/03/06 06:30:33;;;;;;;7.07;3.45;;;;;;;;;;4852523;29;20433;-70
2023/03/06 06:32:59;;;;;;;4.95;3.38;;;;;;;;;;4858740;29;20051;-70
2023/03/06 06:35:25;;;;;;;6.40;3.83;;;;;;;;;;4866493;29;20691;-70
2023/03/06 06:37:51;;;;;;;7.47;4.53;;;;;;;;;;4852797;29;20143;-70
2023/03/06 06:40:18;;;;;;;8.55;4.13;;;;;;;;;;4868568;29;20040;-70
2023/03/06 06:42:45;;;;;;;5.32;3.30;;;;;;;;;;4867468;29;20780;-70
2023/03/06 06:45:11;;;;;;;8.73;3.78;;;;;;;;;;4854710;29;20131;-70
2023/03/06 06:47:40;;;;;;;7.97;4.05;;;;;;;;;;4866973;29;20052;-71
2023/03/06 06:50:07;;;;;;;5.53;3.72;;;;;;;;;;4851493;29;20053;-70
2023/03/06 06:52:33;;;;;;;6.03;3.85;;;;;;;;;;4850581;29;20324;-70
2023/03/06 06:54:59;;;;;;;6.85;4.03;;;;;;;;;;4850023;29;20072;-70
2023/03/06 06:57:25;;;;;;;8.73;4.07;;;;;;;;;;4850959;29;20600;-70
2023/03/06 06:59:52;;;;;;;7.28;3.78;;;;;;;;;;4853798;29;20636;-70
2023/03/06 07:02:18;;;;;;;9.13;4.57;;;;;;;;;;4857597;29;20049;-70
2023/03/06 07:04:44;;;;;;;7.55;4.93;;;;;;;;;;4852219;29;20529;-70
2023/03/06 07:07:10;;;;;;;8.63;4.00;;;;;;;;;;4851542;29;20413;-70
2023/03/06 07:09:38;;;;;;;7.22;4.20;;;;;;;;;;4849103;29;20057;-70
2023/03/06 07:12:05;;;;;;;7.40;4.22;;;;;;;;;;4866127;29;20100;-70
2023/03/06 07:14:31;;;;;;;6.07;4.05;;;;;;;;;;4837248;29;20068;-70
2023/03/06 07:16:57;;;;;;;6.68;3.55;;;;;;;;;;4874727;29;20041;-70
2023/03/06 07:19:23;;;;;;;9.40;3.72;;;;;;;;;;4852638;29;20041;-70
2023/03/06 07:21:50;;;;;;;6.18;3.20;;;;;;;;;;4850149;29;20048;-70
2023/03/06 07:24:16;;;;;;;5.65;3.15;;;;;;;;;;4850040;29;20049;-70
2023/03/06 07:26:48;;;;;;;5.55;3.05;;;;;;;;;;4866800;29;20071;-70
2023/03/06 07:29:14;;;;;;;8.45;3.40;;;;;;;;;;4853298;29;20537;-70
2023/03/06 07:31:40;;;;;;;7.65;2.75;;;;;;;;;;4848440;29;20111;-70
2023/03/06 07:34:06;;;;;;;5.22;2.83;;;;;;;;;;4848947;29;20059;-68
2023/03/06 07:36:33;;;;;;;6.10;3.15;;;;;;;;;;4853319;29;20067;-68
2023/03/06 07:38:59;;;;;;;5.05;2.58;;;;;;;;;;4863027;29;20111;-69
2023/03/06 07:41:26;;;;;;;6.22;3.35;;;;;;;;;;4845996;29;20052;-69
2023/03/06 07:43:52;;;;;;;5.22;2.97;;;;;;;;;;4863021;29;20053;-69
2023/03/06 07:46:18;;;;;;;13.27;4.18;;;;;;;;;;4847950;29;20096;-69
2023/03/06 07:48:44;;;;;;;8.02;4.18;;;;;;;;;;4847140;29;20045;-69
2023/03/06 07:51:14;;;;;;;9.93;5.20;;;;;;;;;;4861256;29;20489;-69
2023/03/06 07:53:40;;;;;;;9.05;5.03;;;;;;;;;;4844846;29;20048;-75
2023/03/06 07:56:07;;;;;;;8.55;4.85;;;;;;;;;;4847171;29;20091;-70
2023/03/06 07:58:34;;;;;;;11.70;5.15;;;;;;;;;;4848838;29;20053;-70
2023/03/06 08:01:04;;;;;;;6.20;4.10;;;;;;;;;;4864191;29;20045;-71
2023/03/06 08:03:31;;;;;;;8.05;5.00;;;;;;;;;;4838735;29;20052;-70
2023/03/06 08:06:06;;;;;;;5.72;4.55;;;;;;;;;;4845535;29;20494;-71
2023/03/06 08:08:33;;;;;;;7.45;4.85;;;;;;;;;;4848838;29;20044;-71
2023/03/06 08:10:59;;;;;;;4.93;4.43;;;;;;;;;;4849716;29;20134;-71
2023/03/06 08:13:25;;;;;;;5.47;3.65;;;;;;;;;;4850452;29;20119;-71
2023/03/06 08:16:01;;;;;;;6.10;4.15;;;;;;;;;;4849786;29;20052;-71
2023/03/06 08:18:38;;;;;;;6.35;3.90;;;;;;;;;;4865050;29;20056;-71
2023/03/06 08:21:10;;;;;;;5.22;3.90;;;;;;;;;;4834052;29;20052;-71
2023/03/06 08:23:37;;;;;;;4.85;3.53;;;;;;;;;;4826458;29;20056;-71
2023/03/06 08:26:04;;;;;;;5.75;3.67;;;;;;;;;;4832886;29;20079;-71
2023/03/06 08:28:31;;;;;;;4.45;3.65;;;;;;;;;;4850820;29;20119;-72
2023/03/06 08:30:58;;;;;;;5.63;3.28;;;;;;;;;;4834674;29;20044;-71
2023/03/06 08:33:26;;;;;;;4.30;3.35;;;;;;;;;;4835777;29;20150;-71
2023/03/06 08:35:53;;;;;;;6.28;3.15;;;;;;;;;;4838534;29;20658;-71
2023/03/06 08:38:19;;;;;;;3.30;3.00;;;;;;;;;;4856268;29;20516;-71
2023/03/06 08:40:45;;;;;;;7.25;3.33;;;;;;;;;;4850160;29;21602;-71
2023/03/06 08:43:11;;;;;;;4.68;2.95;;;;;;;;;;4863700;29;20059;-71
2023/03/06 08:45:39;;;;;;;5.25;3.22;;;;;;;;;;4823205;29;20052;-71
2023/03/06 08:48:06;;;;;;;4.35;3.10;;;;;;;;;;4852859;29;20052;-71
2023/03/06 08:50:32;;;;;;;4.93;2.85;;;;;;;;;;4848194;29;20045;-71
2023/03/06 08:52:59;;;;;;;3.70;3.10;;;;;;;;;;4847341;29;21664;-71
2023/03/06 08:55:26;;;;;;;5.05;2.85;;;;;;;;;;4830385;29;20060;-71
2023/03/06 08:57:54;;;;;;;3.05;2.65;;;;;;;;;;4827718;29;20059;-71
2023/03/06 09:00:21;;;;;;;4.93;2.80;;;;;;;;;;4825863;29;20379;-72
2023/03/06 09:02:47;;;;;;;2.90;2.58;;;;;;;;;;4850343;29;20059;-71
2023/03/06 09:05:13;;;;;;;3.92;2.42;;;;;;;;;;4850324;29;20109;-71
2023/03/06 09:07:39;;;;;;;3.20;2.60;;;;;;;;;;4839287;29;20063;-71
2023/03/06 09:10:07;;;;;;;4.93;2.55;;;;;;;;;;4855708;29;20135;-71
2023/03/06 09:12:33;;;;;;;3.47;2.67;;;;;;;;;;4853962;29;20501;-71
2023/03/06 09:15:02;;;;;;;7.03;2.80;;;;;;;;;;4829452;29;20271;-73
2023/03/06 09:17:28;;;;;;;4.93;2.65;;;;;;;;;;4852454;29;20081;-72
2023/03/06 09:19:58;;;;;;;4.03;2.10;;;;;;;;;;4866828;29;20079;-72
2023/03/06 09:22:24;;;;;;;2.63;2.17;;;;;;;;;;4853155;29;20505;-72
2023/03/06 09:24:51;;;;;;;4.35;2.20;;;;;;;;;;4831848;29;20100;-72
2023/03/06 09:27:17;;;;;;;6.38;2.50;;;;;;;;;;4830740;29;20049;-72
2023/03/06 09:29:44;;;;;;;3.40;2.53;;;;;;;;;;4852033;29;20854;-72
2023/03/06 09:32:10;;;;;;;3.15;2.55;;;;;;;;;;4853458;29;20048;-72
2023/03/06 09:34:36;;;;;;;4.03;2.40;;;;;;;;;;4851302;29;20048;-73
2023/03/06 09:37:04;;;;;;;5.10;2.30;;;;;;;;;;4829861;29;20048;-73
2023/03/06 09:39:31;;;;;;;7.50;2.47;;;;;;;;;;4844752;29;20056;-73
2023/03/06 09:41:57;;;;;;;4.75;2.40;;;;;;;;;;4827963;29;20052;-72
2023/03/06 09:44:26;;;;;;;3.25;2.72;;;;;;;;;;4852291;29;20412;-73
2023/03/06 09:47:02;;;;;;;8.02;2.10;;;;;;;;;;4859236;29;20177;-72
2023/03/06 09:49:34;;;;;;;5.75;2.40;;;;;;;;;;4860243;29;20048;-72
2023/03/06 09:52:00;;;;;;;6.13;2.05;;;;;;;;;;4853920;29;20056;-72
2023/03/06 09:54:43;;;;;;;5.28;2.00;;;;;;;;;;4851510;29;20611;-72
2023/03/06 09:57:16;;;;;;;3.90;1.88;;;;;;;;;;4851560;29;20073;-72
2023/03/06 09:59:44;;;;;;;2.90;1.75;;;;;;;;;;4823005;29;20045;-73
2023/03/06 10:02:15;;;;;;;6.05;1.92;;;;;;;;;;4865922;29;20052;-72
2023/03/06 10:04:43;;;;;;;6.13;1.67;;;;;;;;;;4839976;29;20123;-72
2023/03/06 10:07:14;;;;;;;3.85;1.77;;;;;;;;;;4836711;29;20097;-73
2023/03/06 10:09:44;;;;;;;3.17;1.40;;;;;;;;;;4845431;29;20080;-72
2023/03/06 10:12:18;;;;;;;2.42;1.42;;;;;;;;;;4851711;29;20087;-72
2023/03/06 10:14:44;;;;;;;;;;;;;;;;;;4851797;29;20045;-72
2023/03/06 10:17:21;;;;;;;5.55;1.30;;;;;;;;;;4851728;29;20463;-72
2023/03/06 10:19:48;;;;;;;2.85;1.60;;;;;;;;;;4851120;29;20063;-72
2023/03/06 10:22:23;;;;;;;3.67;1.17;;;;;;;;;;4865789;29;20167;-72
2023/03/06 10:24:49;;;;;;;4.32;1.00;;;;;;;;;;4837657;29;20519;-72
2023/03/06 10:27:39;;;;;;;5.30;1.30;;;;;;;;;;4851019;29;20478;-72
2023/03/06 10:30:24;;;;;;;3.30;1.00;;;;;;;;;;4851547;29;20074;-72
2023/03/06 10:32:58;;;;;;;3.25;1.00;;;;;;;;;;4860156;29;20109;-73
2023/03/06 10:35:27;;;;;;;2.42;0.77;;;;;;;;;;4851430;29;20075;-73
2023/03/06 10:38:19;;;;;;;11.02;1.17;;;;;;;;;;4852470;29;20243;-71
2023/03/06 10:41:18;;;;;;;2.00;0.80;;;;;;;;;;4852615;29;20783;-72
2023/03/06 10:44:04;;;;;;;1.13;0.73;;;;;;;;;;4805795;29;21655;-72
2023/03/06 10:46:38;;;;;;;6.55;1.00;;;;;;;;;;4850363;29;20446;-72
2023/03/06 10:49:08;;;;;;;1.88;0.95;;;;;;;;;;4850708;29;20548;-72
2023/03/06 10:51:34;;;;;;;3.03;0.88;;;;;;;;;;4851316;29;20037;-72
2023/03/06 10:54:18;;;;;;;0.90;0.60;;;;;;;;;;4833651;29;20083;-79
2023/03/06 10:56:45;;;;;;;2.03;0.60;;;;;;;;;;4852827;29;20067;-78
2023/03/06 10:59:11;;;;;;;3.65;1.08;;;;;;;;;;4854954;29;20104;-78
2023/03/06 11:01:38;;;;;;;2.45;0.70;;;;;;;;;;4851432;29;20053;-78
2023/03/06 11:04:24;;;;;;;2.63;0.70;;;;;;;;;;4867442;29;20068;-79
2023/03/06 11:07:09;;;;;;;2.35;0.60;;;;;;;;;;4851655;29;20076;-78
2023/03/06 11:09:35;;;;;;;4.45;0.82;;;;;;;;;;4850159;29;20497;-79
2023/03/06 11:12:21;;;;;;;2.88;0.70;;;;;;;;;;4867955;29;20757;-79
2023/03/06 11:15:06;;;;;;;2.72;0.50;;;;;;;;;;4858552;29;20072;-79
2023/03/06 11:17:34;;;;;;;2.55;0.80;;;;;;;;;;4852621;29;20410;-79
2023/03/06 11:20:15;;;;;;;3.00;0.50;;;;;;;;;;4843346;29;21730;-79
2023/03/06 11:22:43;;;;;;;2.25;0.60;;;;;;;;;;4850782;29;20045;-79
2023/03/06 11:25:12;;;;;;;2.80;1.10;;;;;;;;;;4852772;29;20140;-79
2023/03/06 11:27:41;;;;;;;1.38;0.60;;;;;;;;;;4866512;29;20111;-79
2023/03/06 11:30:18;;;;;;;2.22;0.50;;;;;;;;;;4853976;29;20060;-79
2023/03/06 11:32:57;;;;;;;0.85;0.50;;;;;;;;;;4849460;29;20044;-77
2023/03/06 11:35:28;;;;;;;2.50;0.60;;;;;;;;;;4849281;29;20128;-78
2023/03/06 11:38:00;;;;;;;1.38;0.50;;;;;;;;;;4851464;29;20037;-78
2023/03/06 11:40:31;;;;;;;1.95;0.70;;;;;;;;;;4853393;29;20052;-77
2023/03/06 11:42:57;;;;;;;1.65;0.40;;;;;;;;;;4854498;29;20813;-77
2023/03/06 11:45:24;;;;;;;1.38;0.50;;;;;;;;;;4852210;29;20302;-77
2023/03/06 11:47:53;;;;;;;4.18;0.68;;;;;;;;;;4851351;29;20049;-77
2023/03/06 11:50:19;;;;;;;1.30;0.50;;;;;;;;;;4847880;29;20573;-78
2023/03/06 11:52:48;;;;;;;3.50;0.60;;;;;;;;;;4849213;29;20052;-77
2023/03/06 11:55:28;;;;;;;2.30;0.73;;;;;;;;;;4847726;29;20576;-77
2023/03/06 11:58:01;;;;;;;2.28;0.70;;;;;;;;;;4864232;29;20052;-77
2023/03/06 12:00:27;;;;;;;2.83;0.75;;;;;;;;;;4850131;29;20052;-77
2023/03/06 12:03:01;;;;;;;2.45;0.60;;;;;;;;;;4848426;29;20052;-78
2023/03/06 12:05:32;;;;;;;1.85;0.60;;;;;;;;;;4848968;29;20053;-77
2023/03/06 12:08:02;;;;;;;2.17;0.63;;;;;;;;;;4848015;29;20143;-78
2023/03/06 12:10:29;;;;;;;2.72;0.60;;;;;;;;;;4840550;29;20071;-78
2023/03/06 12:13:14;;;;;;;1.42;0.50;;;;;;;;;;4852226;29;20064;-77
2023/03/06 12:15:40;;;;;;;;;;;;;;;;;;4853394;29;20052;-77
2023/03/06 12:18:19;;;;;;;5.80;0.60;;;;;;;;;;4851224;29;20994;-78
2023/03/06 12:21:00;;;;;;;10.23;0.85;;;;;;;;;;4854074;29;20049;-77
2023/03/06 12:23:29;;;;;;;1.95;0.50;;;;;;;;;;4874278;29;20060;-77
2023/03/06 12:25:59;;;;;;;4.40;0.80;;;;;;;;;;4853954;29;20052;-77
2023/03/06 12:28:44;;;;;;;4.15;0.95;;;;;;;;;;4857581;29;20093;-77
2023/03/06 12:31:27;;;;;;;1.38;0.60;;;;;;;;;;4860186;29;20533;-77
2023/03/06 12:33:57;;;;;;;4.70;0.90;;;;;;;;;;4852070;29;20100;-77
2023/03/06 12:36:36;;;;;;;5.05;0.80;;;;;;;;;;4849750;29;20555;-77
2023/03/06 12:39:09;;;;;;;1.58;0.57;;;;;;;;;;4851341;29;21676;-77
2023/03/06 12:41:54;;;;;;;2.72;0.90;;;;;;;;;;4865411;29;20411;-77
2023/03/06 12:44:26;;;;;;;2.10;0.80;;;;;;;;;;4848447;29;20053;-77
2023/03/06 12:47:01;;;;;;;2.75;0.90;;;;;;;;;;4851886;29;20052;-77
2023/03/06 12:49:29;;;;;;;4.05;0.45;;;;;;;;;;4866921;29;20051;-77
2023/03/06 12:51:56;;;;;;;4.32;0.80;;;;;;;;;;4849573;29;20486;-77
2023/03/06 12:54:24;;;;;;;2.03;0.70;;;;;;;;;;4851549;29;20083;-77
2023/03/06 12:56:51;;;;;;;4.50;0.57;;;;;;;;;;4849534;29;20052;-77
2023/03/06 12:59:38;;;;;;;6.60;0.90;;;;;;;;;;4851388;29;20061;-77
2023/03/06 13:02:08;;;;;;;1.80;0.52;;;;;;;;;;4852062;29;20092;-77
2023/03/06 13:05:00;;;;;;;2.05;0.55;;;;;;;;;;4851113;29;20071;-77
2023/03/06 13:07:56;;;;;;;2.35;0.70;;;;;;;;;;4815384;29;20159;-78
2023/03/06 13:10:26;;;;;;;2.20;0.80;;;;;;;;;;4785858;29;20160;-78
2023/03/06 13:13:00;;;;;;;1.40;0.50;;;;;;;;;;4848902;29;20533;-77
2023/03/06 13:15:33;;;;;;;4.93;1.17;;;;;;;;;;4846978;29;20778;-78
2023/03/06 13:17:59;;;;;;;6.47;0.70;;;;;;;;;;4849242;29;20055;-78
2023/03/06 13:20:32;;;;;;;4.80;1.13;;;;;;;;;;4848516;29;20092;-77
2023/03/06 13:22:58;;;;;;;3.47;0.80;;;;;;;;;;4847240;29;20109;-77
2023/03/06 13:25:28;;;;;;;2.10;1.08;;;;;;;;;;4849331;29;20045;-77
2023/03/06 13:27:54;;;;;;;2.47;0.68;;;;;;;;;;4854478;29;20083;-77
2023/03/06 13:30:20;;;;;;;0.50;0.40;;;;;;;;;;4849623;29;20088;-77
2023/03/06 13:32:47;;;;;;;2.25;0.70;;;;;;;;;;4849328;29;20056;-78
2023/03/06 13:35:32;;;;;;;5.88;0.80;;;;;;;;;;4849247;29;20044;-78
2023/03/06 13:37:58;;;;;;;3.90;0.70;;;;;;;;;;4850369;29;20559;-77
2023/03/06 13:40:29;;;;;;;2.88;0.73;;;;;;;;;;4865727;29;20045;-78
2023/03/06 13:42:58;;;;;;;2.22;0.82;;;;;;;;;;4850936;29;20049;-78
2023/03/06 13:45:37;;;;;;;2.05;0.80;;;;;;;;;;4851259;29;20057;-78
2023/03/06 13:48:03;;;;;;;2.38;0.63;;;;;;;;;;4850421;29;20064;-79
2023/03/06 13:50:32;;;;;;;9.23;1.00;;;;;;;;;;4850498;29;20660;-78
2023/03/06 13:53:05;;;;;;;8.25;1.20;;;;;;;;;;4851157;29;20071;-78
2023/03/06 13:55:43;;;;;;;3.42;0.90;;;;;;;;;;4854081;29;20572;-78
2023/03/06 13:58:18;;;;;;;2.15;1.50;;;;;;;;;;4855121;29;20059;-78
2023/03/06 14:01:03;;;;;;;4.78;1.00;;;;;;;;;;4858629;29;20160;-77
2023/03/06 14:03:35;;;;;;;4.63;0.80;;;;;;;;;;4859547;29;20049;-76
2023/03/06 14:06:01;;;;;;;4.40;0.70;;;;;;;;;;4856577;29;20260;-77
2023/03/06 14:08:29;;;;;;;5.97;1.13;;;;;;;;;;4853889;29;20994;-78
2023/03/06 14:11:18;;;;;;;1.52;0.65;;;;;;;;;;4854616;29;20574;-77
2023/03/06 14:13:52;;;;;;;1.48;0.70;;;;;;;;;;4854062;29;20072;-77
2023/03/06 14:16:22;;;;;;;2.90;0.80;;;;;;;;;;4853027;29;20100;-77
2023/03/06 14:18:50;;;;;;;2.33;0.73;;;;;;;;;;4870284;29;20041;-77
2023/03/06 14:21:24;;;;;;;2.40;0.68;;;;;;;;;;4852659;29;20045;-77
2023/03/06 14:23:57;;;;;;;1.70;0.70;;;;;;;;;;4853483;29;20055;-78
2023/03/06 14:26:24;;;;;;;2.38;0.95;;;;;;;;;;4860558;29;20081;-78
2023/03/06 14:28:57;;;;;;;4.22;1.50;;;;;;;;;;4851937;29;20510;-77
2023/03/06 14:31:25;;;;;;;4.73;1.10;;;;;;;;;;4853030;29;20198;-78
2023/03/06 14:33:55;;;;;;;2.45;1.00;;;;;;;;;;4854177;29;20048;-77
2023/03/06 14:36:22;;;;;;;3.03;0.70;;;;;;;;;;4853875;29;20084;-78
2023/03/06 14:38:52;;;;;;;5.28;0.80;;;;;;;;;;4853818;29;20048;-77
2023/03/06 14:41:25;;;;;;;2.25;0.77;;;;;;;;;;4852571;29;20059;-78
2023/03/06 14:43:52;;;;;;;2.83;1.58;;;;;;;;;;4852122;29;20145;-78
2023/03/06 14:46:19;;;;;;;2.25;0.80;;;;;;;;;;4867709;29;20059;-78
2023/03/06 14:48:46;;;;;;;1.98;0.60;;;;;;;;;;4852030;29;20127;-78
2023/03/06 14:51:15;;;;;;;0.65;0.60;;;;;;;;;;4853081;29;20096;-77
2023/03/06 14:53:43;;;;;;;2.83;1.33;;;;;;;;;;4842647;29;20114;-77